Time;durP1;ratioP1;P1;durP2;ratioP2;P2;SDS_P1;SDS_P2;PMS_P1;PMS_P2;Temp;Humidity;BMP_temperature;BMP_pressure;BME280_temperature;BME280_humidity;BME280_pressure;Samples;Min_cycle;Max_cycle;Signal;HPM_P1;HPM_P2
2021/07/26 00:00:18;;;;;;;9.73;9.33;;;24.80;94.80;;;;;;3586009;40;20461;-55
2021/07/26 00:02:45;;;;;;;9.30;8.90;;;24.80;94.80;;;;;;3577653;40;20482;-56
2021/07/26 00:05:13;;;;;;;9.33;8.93;;;24.80;94.80;;;;;;3577564;40;20458;-54
2021/07/26 00:07:40;;;;;;;9.70;9.30;;;24.80;94.80;;;;;;3587440;40;20512;-53
2021/07/26 00:10:08;;;;;;;9.87;9.47;;;24.80;94.80;;;;;;3586848;40;20481;-57
2021/07/26 00:12:36;;;;;;;9.97;9.57;;;24.80;94.80;;;;;;3586912;40;20461;-55
2021/07/26 00:15:06;;;;;;;10.13;9.63;;;24.80;94.80;;;;;;3586614;40;20663;-53
2021/07/26 00:17:35;;;;;;;9.60;9.20;;;24.80;94.80;;;;;;3586223;40;20657;-53
2021/07/26 00:20:02;;;;;;;9.40;9.00;;;24.80;94.80;;;;;;3586000;40;20685;-53
2021/07/26 00:22:31;;;;;;;9.90;9.50;;;24.80;94.80;;;;;;3587742;40;20467;-56
2021/07/26 00:24:58;;;;;;;9.17;8.87;;;24.80;94.80;;;;;;3587122;40;20840;-56
2021/07/26 00:27:25;;;;;;;9.50;9.10;;;24.80;94.80;;;;;;3586667;40;20449;-55
2021/07/26 00:29:59;;;;;;;9.60;9.27;;;24.80;94.80;;;;;;3587085;40;20519;-53
2021/07/26 00:32:28;;;;;;;9.70;9.30;;;24.80;94.80;;;;;;3586651;40;20454;-54
2021/07/26 00:35:05;;;;;;;9.90;9.50;;;24.80;94.80;;;;;;3585487;40;20466;-55
2021/07/26 00:37:33;;;;;;;9.77;9.37;;;24.80;94.80;;;;;;3586188;40;20552;-56
2021/07/26 00:40:07;;;;;;;9.60;9.20;;;24.80;94.80;;;;;;3587870;40;20734;-54
2021/07/26 00:42:35;;;;;;;9.77;9.37;;;24.80;94.80;;;;;;3587027;40;20458;-54
2021/07/26 00:45:03;;;;;;;9.30;8.93;;;24.80;94.80;;;;;;3578105;40;20476;-53
2021/07/26 00:47:30;;;;;;;9.87;9.47;;;24.80;94.80;;;;;;3586711;40;20470;-53
2021/07/26 00:49:58;;;;;;;9.63;9.20;;;24.80;94.80;;;;;;3586738;40;20450;-55
2021/07/26 00:52:26;;;;;;;9.30;8.90;;;24.80;94.80;;;;;;3587400;40;20777;-53
2021/07/26 00:54:54;;;;;;;9.70;9.30;;;24.80;94.80;;;;;;3587107;40;20611;-53
2021/07/26 00:57:23;;;;;;;10.27;9.87;;;24.80;94.80;;;;;;3586433;40;20566;-56
2021/07/26 00:59:51;;;;;;;9.40;9.00;;;24.80;94.80;;;;;;3586315;40;20473;-53
2021/07/26 01:02:18;;;;;;;9.90;9.50;;;24.80;94.80;;;;;;3587076;40;20461;-56
2021/07/26 01:04:45;;;;;;;9.07;8.77;;;24.80;94.80;;;;;;3585965;40;20446;-56
2021/07/26 01:07:13;;;;;;;9.87;9.47;;;24.80;94.80;;;;;;3586321;40;20887;-53
2021/07/26 01:09:41;;;;;;;9.60;9.20;;;24.80;94.80;;;;;;3586410;40;20770;-57
2021/07/26 01:12:09;;;;;;;9.97;9.57;;;24.80;94.80;;;;;;3585957;40;20544;-57
2021/07/26 01:14:37;;;;;;;9.67;9.27;;;24.80;94.80;;;;;;3576756;40;20717;-53
2021/07/26 01:17:08;;;;;;;8.83;8.53;;;24.80;94.80;;;;;;3587254;40;20820;-54
2021/07/26 01:19:35;;;;;;;10.00;9.60;;;24.80;94.80;;;;;;3586694;40;20764;-54
2021/07/26 01:22:05;;;;;;;9.93;9.53;;;24.80;94.80;;;;;;3587060;40;20466;-57
2021/07/26 01:24:32;;;;;;;10.03;9.63;;;24.80;94.80;;;;;;3586225;40;20486;-56
2021/07/26 01:26:59;;;;;;;9.20;8.90;;;24.80;94.80;;;;;;3586806;40;21009;-54
2021/07/26 01:29:26;;;;;;;8.97;8.67;;;24.80;94.80;;;;;;3586651;40;20458;-56
2021/07/26 01:31:53;;;;;;;9.90;9.50;;;24.80;94.80;;;;;;3586775;40;20513;-54
2021/07/26 01:34:21;;;;;;;8.90;8.60;;;24.80;94.80;;;;;;3576951;40;20478;-53
2021/07/26 01:36:48;;;;;;;9.60;9.20;;;24.80;94.80;;;;;;3587279;40;20529;-56
2021/07/26 01:39:16;;;;;;;10.13;9.73;;;24.80;94.80;;;;;;3586249;40;20469;-54
2021/07/26 01:41:44;;;;;;;9.80;9.40;;;24.80;94.80;;;;;;3586847;40;20474;-54
2021/07/26 01:44:12;;;;;;;9.63;9.23;;;24.80;94.80;;;;;;3586815;40;20446;-54
2021/07/26 01:46:56;;;;;;;9.97;9.50;;;24.80;94.80;;;;;;3586362;40;20454;-53
2021/07/26 01:49:51;;;;;;;10.00;9.60;;;24.80;94.80;;;;;;3586786;40;20454;-55
2021/07/26 01:52:19;;;;;;;9.70;9.30;;;24.80;94.80;;;;;;3586491;40;20535;-53
2021/07/26 01:54:48;;;;;;;9.70;9.30;;;24.80;94.80;;;;;;3587795;40;20470;-57
2021/07/26 01:57:15;;;;;;;9.70;9.30;;;24.80;94.80;;;;;;3587630;40;20474;-54
2021/07/26 01:59:43;;;;;;;10.17;9.77;;;24.80;94.80;;;;;;3586363;40;20446;-54
2021/07/26 02:02:10;;;;;;;10.37;9.87;;;24.80;94.80;;;;;;3577341;40;20514;-53
2021/07/26 02:04:37;;;;;;;9.73;9.33;;;24.80;94.80;;;;;;3586667;40;20924;-53
2021/07/26 02:07:06;;;;;;;9.83;9.43;;;24.80;94.80;;;;;;3586203;40;20447;-53
2021/07/26 02:09:34;;;;;;;9.67;9.27;;;24.80;94.80;;;;;;3586110;40;20881;-55
2021/07/26 02:12:02;;;;;;;10.00;9.60;;;24.80;94.80;;;;;;3586706;40;20481;-56
2021/07/26 02:14:30;;;;;;;8.93;8.63;;;24.80;94.80;;;;;;3586061;40;20637;-57
2021/07/26 02:16:57;;;;;;;9.20;8.80;;;24.80;94.80;;;;;;3585570;40;20818;-55
2021/07/26 02:19:25;;;;;;;9.60;9.20;;;24.80;94.80;;;;;;3585463;40;20470;-55
2021/07/26 02:21:52;;;;;;;9.67;9.27;;;24.80;94.80;;;;;;3585543;40;20462;-55
2021/07/26 02:24:20;;;;;;;9.63;9.23;;;24.80;94.80;;;;;;3585362;40;20938;-54
2021/07/26 02:26:47;;;;;;;9.70;9.30;;;24.80;94.80;;;;;;3585479;40;20458;-53
2021/07/26 02:29:16;;;;;;;8.80;8.50;;;24.80;94.80;;;;;;3586142;40;20908;-56
2021/07/26 02:31:44;;;;;;;9.63;9.23;;;24.80;94.80;;;;;;3586778;40;20454;-56
2021/07/26 02:34:12;;;;;;;9.87;9.47;;;24.80;94.80;;;;;;3586575;40;20525;-56
2021/07/26 02:36:39;;;;;;;9.00;8.70;;;24.80;94.80;;;;;;3585906;40;20690;-55
2021/07/26 02:39:07;;;;;;;9.57;9.17;;;24.80;94.80;;;;;;3585291;40;20474;-54
2021/07/26 02:41:34;;;;;;;9.30;8.90;;;24.80;94.80;;;;;;3585996;40;20524;-56
2021/07/26 02:44:01;;;;;;;8.90;8.60;;;24.80;94.80;;;;;;3586230;40;20466;-55
2021/07/26 02:46:30;;;;;;;9.23;8.83;;;24.80;94.80;;;;;;3585134;40;21081;-55
2021/07/26 02:48:57;;;;;;;9.23;8.87;;;24.80;94.80;;;;;;3585140;40;20454;-55
2021/07/26 02:51:24;;;;;;;9.80;9.40;;;24.80;94.80;;;;;;3585569;40;20825;-56
2021/07/26 02:53:51;;;;;;;9.80;9.40;;;24.80;94.80;;;;;;3585599;40;20478;-53
2021/07/26 02:56:31;;;;;;;9.90;9.50;;;24.80;94.80;;;;;;3577207;40;20462;-55
2021/07/26 02:58:58;;;;;;;10.20;9.80;;;24.80;94.80;;;;;;3585211;40;20474;-56
2021/07/26 03:01:25;;;;;;;10.73;10.33;;;24.80;94.80;;;;;;3585089;40;20686;-55
2021/07/26 03:03:54;;;;;;;10.40;10.00;;;24.80;94.80;;;;;;3585339;40;20458;-55
2021/07/26 03:06:23;;;;;;;10.23;9.83;;;24.80;94.80;;;;;;3584625;40;20454;-58
2021/07/26 03:08:50;;;;;;;10.50;10.10;;;24.80;94.80;;;;;;3584643;40;20532;-55
2021/07/26 03:11:18;;;;;;;10.53;10.13;;;24.80;94.80;;;;;;3584453;40;20947;-55
2021/07/26 03:13:45;;;;;;;10.07;9.67;;;24.80;94.80;;;;;;3585032;40;20462;-54
2021/07/26 03:16:14;;;;;;;9.20;8.80;;;24.80;94.80;;;;;;3584745;40;20734;-57
2021/07/26 03:18:41;;;;;;;9.20;8.83;;;24.80;94.80;;;;;;3584396;40;20474;-53
2021/07/26 03:21:16;;;;;;;9.67;9.27;;;24.80;94.80;;;;;;3585181;40;20512;-56
2021/07/26 03:23:43;;;;;;;9.50;9.10;;;24.80;94.80;;;;;;3584974;40;20470;-57
2021/07/26 03:26:10;;;;;;;9.83;9.43;;;24.80;94.80;;;;;;3583738;40;20608;-53
2021/07/26 03:28:38;;;;;;;9.77;9.47;;;24.80;94.80;;;;;;3585027;40;20455;-55
2021/07/26 03:31:05;;;;;;;9.33;8.93;;;24.80;94.80;;;;;;3584248;40;20469;-54
2021/07/26 03:33:32;;;;;;;9.27;8.97;;;24.80;94.80;;;;;;3584618;40;20462;-56
2021/07/26 03:35:59;;;;;;;10.00;9.60;;;24.80;94.80;;;;;;3584792;40;20860;-53
2021/07/26 03:38:29;;;;;;;10.23;9.83;;;24.80;94.80;;;;;;3586370;40;20478;-54
2021/07/26 03:40:56;;;;;;;9.63;9.30;;;24.80;94.80;;;;;;3586551;40;20801;-57
2021/07/26 03:43:23;;;;;;;10.33;9.93;;;24.80;94.80;;;;;;3584879;40;20461;-53
2021/07/26 03:45:50;;;;;;;10.70;10.30;;;24.80;94.80;;;;;;3585408;40;20556;-54
2021/07/26 03:48:17;;;;;;;9.37;9.00;;;24.80;94.80;;;;;;3586092;40;20532;-55
2021/07/26 03:50:44;;;;;;;11.10;10.70;;;24.80;94.80;;;;;;3585917;40;20450;-53
2021/07/26 03:53:12;;;;;;;11.20;10.70;;;24.80;94.80;;;;;;3586112;40;20450;-55
2021/07/26 03:55:40;;;;;;;10.70;10.27;;;24.80;94.80;;;;;;3585095;40;20458;-53
2021/07/26 03:58:07;;;;;;;11.10;10.70;;;24.80;94.80;;;;;;3584169;40;20474;-54
2021/07/26 04:00:35;;;;;;;9.40;9.00;;;24.80;94.80;;;;;;3584512;40;20629;-56
2021/07/26 04:03:09;;;;;;;9.83;9.43;;;24.80;94.70;;;;;;3586626;40;20476;-54
2021/07/26 04:05:38;;;;;;;9.53;9.13;;;24.80;94.80;;;;;;3585964;40;20500;-56
2021/07/26 04:08:08;;;;;;;10.27;9.87;;;24.80;94.80;;;;;;3585458;40;20473;-56
2021/07/26 04:10:39;;;;;;;10.47;10.07;;;24.80;94.80;;;;;;3585945;40;20466;-55
2021/07/26 04:13:07;;;;;;;9.70;9.30;;;24.80;94.80;;;;;;3584654;40;20457;-53
2021/07/26 04:15:35;;;;;;;10.40;10.00;;;24.80;94.80;;;;;;3585902;40;20844;-54
2021/07/26 04:18:02;;;;;;;10.10;9.70;;;24.80;94.80;;;;;;3585280;40;20732;-54
2021/07/26 04:20:29;;;;;;;9.70;9.40;;;24.80;94.80;;;;;;3585517;40;20775;-53
2021/07/26 04:22:58;;;;;;;10.47;10.07;;;24.80;94.70;;;;;;3585547;40;20742;-55
2021/07/26 04:25:25;;;;;;;10.00;9.60;;;24.80;94.80;;;;;;3584926;40;20478;-53
2021/07/26 04:27:52;;;;;;;10.50;10.10;;;24.80;94.80;;;;;;3584481;40;20473;-54
2021/07/26 04:30:39;;;;;;;10.17;9.80;;;24.80;94.70;;;;;;3584630;40;20454;-56
2021/07/26 04:33:09;;;;;;;9.90;9.50;;;24.80;94.70;;;;;;3583920;40;20880;-56
2021/07/26 04:35:37;;;;;;;9.50;9.20;;;24.80;94.70;;;;;;3582193;40;20470;-56
2021/07/26 04:38:04;;;;;;;10.00;9.60;;;24.80;94.80;;;;;;3580438;40;20489;-57
2021/07/26 04:40:31;;;;;;;10.30;9.90;;;24.80;94.80;;;;;;3582096;40;20727;-53
2021/07/26 04:42:59;;;;;;;10.90;10.50;;;24.80;94.80;;;;;;3581957;40;20487;-56
2021/07/26 04:45:26;;;;;;;10.53;10.13;;;24.80;94.80;;;;;;3581261;40;20752;-56
2021/07/26 04:47:54;;;;;;;10.67;10.27;;;24.80;94.70;;;;;;3579952;40;20848;-56
2021/07/26 04:50:21;;;;;;;10.20;9.80;;;24.80;94.80;;;;;;3580974;40;20450;-57
2021/07/26 04:52:49;;;;;;;10.97;10.57;;;24.80;94.80;;;;;;3581270;40;20474;-53
2021/07/26 04:55:16;;;;;;;10.27;9.87;;;24.80;94.80;;;;;;3582616;40;20795;-56
2021/07/26 04:58:02;;;;;;;10.07;9.67;;;24.80;94.80;;;;;;3581953;40;20492;-53
2021/07/26 05:00:30;;;;;;;10.13;9.73;;;24.80;94.70;;;;;;3579186;40;20829;-56
2021/07/26 05:02:58;;;;;;;10.37;9.97;;;24.80;94.80;;;;;;3579108;40;20590;-57
2021/07/26 05:05:25;;;;;;;10.70;10.30;;;24.80;94.80;;;;;;3580871;40;20754;-54
2021/07/26 05:07:53;;;;;;;10.70;10.30;;;24.80;94.70;;;;;;3576487;40;20567;-54
2021/07/26 05:10:20;;;;;;;10.73;10.33;;;24.80;94.90;;;;;;3577606;40;20481;-57
2021/07/26 05:12:47;;;;;;;10.43;10.03;;;24.80;94.70;;;;;;3577439;40;20604;-56
2021/07/26 05:15:14;;;;;;;10.47;10.07;;;24.80;94.70;;;;;;3578357;40;20902;-58
2021/07/26 05:17:41;;;;;;;11.40;11.00;;;24.80;94.70;;;;;;3577434;40;20486;-56
2021/07/26 05:20:11;;;;;;;10.80;10.40;;;24.80;94.70;;;;;;3576571;40;20470;-56
2021/07/26 05:22:39;;;;;;;11.17;10.67;;;24.80;94.70;;;;;;3578260;40;20546;-57
2021/07/26 05:25:06;;;;;;;11.40;11.00;;;24.80;94.80;;;;;;3560011;40;20769;-56
2021/07/26 05:27:34;;;;;;;11.47;11.07;;;24.80;94.70;;;;;;3566544;40;20475;-56
2021/07/26 05:30:01;;;;;;;10.53;10.13;;;24.80;94.70;;;;;;3566584;40;20560;-54
2021/07/26 05:32:29;;;;;;;11.30;10.80;;;24.80;94.70;;;;;;3565251;40;20589;-54
2021/07/26 05:34:56;;;;;;;10.70;10.30;;;24.80;94.70;;;;;;3564638;40;20812;-57
2021/07/26 05:37:24;;;;;;;11.60;11.10;;;24.80;94.70;;;;;;3564929;40;20696;-57
2021/07/26 05:39:51;;;;;;;10.83;10.43;;;24.80;94.70;;;;;;3567576;40;20486;-54
2021/07/26 05:42:19;;;;;;;11.70;11.20;;;24.80;94.80;;;;;;3567020;40;20549;-55
2021/07/26 05:44:46;;;;;;;11.53;11.13;;;24.80;94.70;;;;;;3566446;40;20643;-56
2021/07/26 05:47:14;;;;;;;11.77;11.27;;;24.80;94.80;;;;;;3563860;40;20842;-56
2021/07/26 05:49:43;;;;;;;11.63;11.23;;;24.80;94.80;;;;;;3564746;40;20486;-56
2021/07/26 05:52:11;;;;;;;11.57;11.17;;;24.80;94.80;;;;;;3563651;40;20679;-55
2021/07/26 05:54:40;;;;;;;12.60;12.10;;;24.80;94.70;;;;;;3562843;40;20468;-55
2021/07/26 05:57:11;;;;;;;11.73;11.33;;;24.80;94.70;;;;;;3562072;40;20478;-58
2021/07/26 05:59:38;;;;;;;12.53;12.03;;;24.80;94.80;;;;;;3562919;40;20592;-54
2021/07/26 06:02:05;;;;;;;11.70;11.30;;;24.80;94.70;;;;;;3561148;40;20467;-53
2021/07/26 06:04:33;;;;;;;11.07;10.67;;;24.80;94.70;;;;;;3559831;40;20732;-54
2021/07/26 06:07:00;;;;;;;11.30;10.90;;;24.80;94.70;;;;;;3557943;40;20660;-55
2021/07/26 06:09:27;;;;;;;10.67;10.37;;;24.80;94.70;;;;;;3556334;40;20730;-55
2021/07/26 06:11:56;;;;;;;10.83;10.43;;;24.80;94.70;;;;;;3558498;40;20596;-54
2021/07/26 06:14:24;;;;;;;11.30;10.90;;;24.80;94.70;;;;;;3557990;40;20504;-56
2021/07/26 06:16:53;;;;;;;11.30;10.90;;;24.80;94.70;;;;;;3557911;40;20501;-55
2021/07/26 06:19:21;;;;;;;11.70;11.20;;;24.80;94.70;;;;;;3556214;40;20467;-55
2021/07/26 06:21:49;;;;;;;11.60;11.20;;;24.80;94.70;;;;;;3557342;40;20459;-57
2021/07/26 06:24:19;;;;;;;12.20;11.70;;;24.80;94.70;;;;;;3557198;40;20722;-55
2021/07/26 06:27:06;;;;;;;11.60;11.20;;;24.80;94.70;;;;;;3557926;40;20554;-54
2021/07/26 06:29:33;;;;;;;11.80;11.40;;;24.80;94.70;;;;;;3559082;40;20520;-56
2021/07/26 06:32:00;;;;;;;10.60;10.20;;;24.80;94.70;;;;;;3548758;40;20714;-57
2021/07/26 06:34:28;;;;;;;11.00;10.60;;;24.80;94.70;;;;;;3558688;40;20462;-57
2021/07/26 06:36:55;;;;;;;11.63;11.23;;;24.80;94.70;;;;;;3559786;40;20779;-56
2021/07/26 06:39:22;;;;;;;11.50;11.10;;;24.80;94.70;;;;;;3560297;40;20838;-55
2021/07/26 06:41:50;;;;;;;10.97;10.57;;;24.80;94.70;;;;;;3560962;40;20684;-56
2021/07/26 06:44:18;;;;;;;11.00;10.60;;;24.80;94.70;;;;;;3559212;40;20490;-54
2021/07/26 06:46:45;;;;;;;10.70;10.30;;;24.80;94.70;;;;;;3559416;40;20490;-54
2021/07/26 06:49:13;;;;;;;11.57;11.07;;;24.80;94.70;;;;;;3560971;40;20544;-54
2021/07/26 06:51:40;;;;;;;11.00;10.60;;;24.80;94.70;;;;;;3557059;40;20547;-55
2021/07/26 06:54:08;;;;;;;12.00;11.50;;;24.80;94.70;;;;;;3559582;40;20482;-55
2021/07/26 06:56:35;;;;;;;11.00;10.60;;;24.80;94.70;;;;;;3559581;40;20470;-55
2021/07/26 06:59:02;;;;;;;11.00;10.40;;;24.80;94.70;;;;;;3559648;40;20478;-54
2021/07/26 07:01:31;;;;;;;11.37;10.97;;;24.80;94.70;;;;;;3559804;40;20500;-55
2021/07/26 07:03:58;;;;;;;11.47;10.97;;;24.80;94.70;;;;;;3559197;40;20706;-56
2021/07/26 07:06:27;;;;;;;11.40;11.00;;;24.80;94.70;;;;;;3559336;40;20490;-56
2021/07/26 07:08:55;;;;;;;11.90;11.40;;;24.80;94.70;;;;;;3559909;40;20918;-57
2021/07/26 07:11:24;;;;;;;11.47;10.97;;;24.80;94.70;;;;;;3560250;40;20642;-56
2021/07/26 07:13:52;;;;;;;11.37;10.97;;;24.80;94.70;;;;;;3560324;40;20490;-57
2021/07/26 07:16:21;;;;;;;11.50;11.00;;;24.80;94.70;;;;;;3559949;40;20491;-56
2021/07/26 07:18:52;;;;;;;11.63;11.13;;;24.80;94.70;;;;;;3560424;40;20489;-55
2021/07/26 07:21:20;;;;;;;11.40;11.00;;;24.80;94.70;;;;;;3561199;40;20777;-54
2021/07/26 07:23:48;;;;;;;11.87;11.37;;;24.80;94.70;;;;;;3558650;40;20483;-55
2021/07/26 07:26:16;;;;;;;11.80;11.30;;;24.80;94.70;;;;;;3558677;40;20459;-55
2021/07/26 07:28:44;;;;;;;11.90;11.40;;;24.80;94.70;;;;;;3559867;40;20669;-53
2021/07/26 07:31:13;;;;;;;11.40;10.90;;;24.80;94.70;;;;;;3561246;40;20454;-56
2021/07/26 07:33:40;;;;;;;11.87;11.37;;;24.80;94.70;;;;;;3561087;40;20682;-57
2021/07/26 07:36:09;;;;;;;11.10;10.70;;;24.80;94.70;;;;;;3559415;40;20503;-54
2021/07/26 07:38:36;;;;;;;11.53;11.13;;;24.80;94.70;;;;;;3561238;40;20740;-54
2021/07/26 07:41:05;;;;;;;11.60;11.17;;;24.80;94.80;;;;;;3559210;40;20483;-57
2021/07/26 07:43:32;;;;;;;10.70;10.30;;;24.80;94.80;;;;;;3559370;40;20613;-58
2021/07/26 07:46:00;;;;;;;11.57;11.07;;;24.80;94.70;;;;;;3558059;40;20482;-57
2021/07/26 07:48:29;;;;;;;11.00;10.60;;;24.80;94.80;;;;;;3558103;40;20584;-55
2021/07/26 07:50:57;;;;;;;12.03;11.53;;;24.80;94.80;;;;;;3561403;40;20638;-54
2021/07/26 07:53:27;;;;;;;11.67;11.17;;;24.80;94.80;;;;;;3561844;40;20821;-55
2021/07/26 07:55:54;;;;;;;11.47;11.07;;;24.80;94.80;;;;;;3550505;40;20474;-54
2021/07/26 07:58:22;;;;;;;12.07;11.47;;;24.80;94.80;;;;;;3561598;40;20956;-55
2021/07/26 08:00:51;;;;;;;10.80;10.40;;;24.80;94.80;;;;;;3559927;40;20487;-57
2021/07/26 08:03:19;;;;;;;11.67;11.17;;;24.80;94.80;;;;;;3560070;40;20752;-54
2021/07/26 08:05:47;;;;;;;10.47;10.07;;;24.80;94.80;;;;;;3560250;40;20791;-57
2021/07/26 08:08:14;;;;;;;10.80;10.30;;;24.80;94.90;;;;;;3560480;40;20673;-54
2021/07/26 08:10:43;;;;;;;11.40;10.90;;;24.80;94.90;;;;;;3559203;40;20479;-54
2021/07/26 08:13:10;;;;;;;11.33;10.93;;;24.80;94.90;;;;;;3561295;40;21122;-54
2021/07/26 08:15:37;;;;;;;11.30;10.90;;;24.80;94.90;;;;;;3560808;40;20473;-53
2021/07/26 08:18:05;;;;;;;11.43;11.00;;;24.80;94.90;;;;;;3557903;40;20694;-57
2021/07/26 08:20:32;;;;;;;11.73;11.20;;;24.80;95.20;;;;;;3558449;40;20478;-56
2021/07/26 08:22:59;;;;;;;11.43;10.93;;;24.80;94.90;;;;;;3558969;40;20467;-57
2021/07/26 08:25:28;;;;;;;11.57;11.17;;;24.80;94.90;;;;;;3558101;40;20866;-54
2021/07/26 08:27:58;;;;;;;11.80;11.30;;;24.80;94.90;;;;;;3568129;40;20546;-54
2021/07/26 08:30:26;;;;;;;11.43;11.00;;;24.80;94.90;;;;;;3568535;40;20623;-56
2021/07/26 08:32:54;;;;;;;11.70;11.20;;;24.80;94.90;;;;;;3568803;40;20713;-57
2021/07/26 08:35:22;;;;;;;11.30;10.90;;;24.80;94.90;;;;;;3567558;40;20723;-56
2021/07/26 08:37:49;;;;;;;11.03;10.60;;;24.80;94.90;;;;;;3569770;40;20473;-57
2021/07/26 08:40:19;;;;;;;11.17;10.77;;;24.80;94.90;;;;;;3566136;40;20485;-56
2021/07/26 08:42:46;;;;;;;11.50;10.90;;;24.80;94.90;;;;;;3568196;40;20720;-53
2021/07/26 08:45:15;;;;;;;11.63;11.13;;;24.80;94.90;;;;;;3567235;40;20552;-55
2021/07/26 08:47:44;;;;;;;11.83;11.33;;;24.80;94.90;;;;;;3570554;40;20642;-55
2021/07/26 08:50:13;;;;;;;10.97;10.57;;;24.80;94.90;;;;;;3567622;40;20466;-56
2021/07/26 08:52:43;;;;;;;10.77;10.37;;;24.80;94.90;;;;;;3568434;40;20560;-54
2021/07/26 08:55:12;;;;;;;11.10;10.70;;;24.80;94.90;;;;;;3570123;40;20624;-54
2021/07/26 08:57:42;;;;;;;10.53;10.13;;;24.80;94.90;;;;;;3570551;40;20485;-55
2021/07/26 09:00:11;;;;;;;11.07;10.67;;;24.80;94.90;;;;;;3570900;40;20653;-56
2021/07/26 09:02:40;;;;;;;10.03;9.63;;;24.80;94.90;;;;;;3571444;40;20535;-57
2021/07/26 09:05:09;;;;;;;10.43;10.03;;;24.80;94.90;;;;;;3567790;40;20811;-54
2021/07/26 09:07:40;;;;;;;10.00;9.60;;;24.80;94.90;;;;;;3568322;40;21227;-56
2021/07/26 09:10:14;;;;;;;10.30;10.00;;;24.80;94.90;;;;;;3568321;40;20470;-54
2021/07/26 09:12:42;;;;;;;10.40;10.00;;;24.80;94.90;;;;;;3568501;40;20469;-55
2021/07/26 09:15:25;;;;;;;10.33;9.93;;;24.80;94.90;;;;;;3563305;40;20554;-53
2021/07/26 09:17:53;;;;;;;11.70;11.20;;;24.80;94.90;;;;;;3568006;40;20815;-57
2021/07/26 09:20:27;;;;;;;11.03;10.60;;;24.80;94.90;;;;;;3568457;40;20458;-53
2021/07/26 09:22:56;;;;;;;11.60;11.00;;;24.80;94.90;;;;;;3565701;40;20738;-55
2021/07/26 09:25:25;;;;;;;11.23;10.73;;;24.80;94.90;;;;;;3566960;40;20663;-53
2021/07/26 09:28:11;;;;;;;11.53;11.03;;;24.80;94.90;;;;;;3570790;40;20757;-61
2021/07/26 09:30:40;;;;;;;11.83;11.33;;;24.80;95.00;;;;;;3570398;40;20482;-61
2021/07/26 09:33:26;;;;;;;11.10;10.70;;;24.80;94.90;;;;;;3570793;40;20649;-61
2021/07/26 09:36:06;;;;;;;11.07;10.57;;;24.80;95.00;;;;;;3571259;40;20787;-57
2021/07/26 09:38:34;;;;;;;12.00;11.40;;;24.80;95.00;;;;;;3565703;40;20876;-53
2021/07/26 09:41:02;;;;;;;11.90;11.40;;;24.80;95.00;;;;;;3565445;40;20497;-54
2021/07/26 09:43:30;;;;;;;12.63;12.03;;;24.80;95.00;;;;;;3567765;40;20914;-54
2021/07/26 09:45:59;;;;;;;11.40;10.90;;;24.80;95.00;;;;;;3566408;40;20465;-57
2021/07/26 09:48:29;;;;;;;11.50;11.03;;;24.80;95.00;;;;;;3567623;40;20686;-56
2021/07/26 09:50:57;;;;;;;12.23;11.63;;;24.80;94.90;;;;;;3567938;40;20560;-54
2021/07/26 09:53:26;;;;;;;11.87;11.37;;;24.80;95.00;;;;;;3565919;40;20914;-53
2021/07/26 09:55:54;;;;;;;11.70;11.20;;;24.80;95.00;;;;;;3567366;40;20470;-54
2021/07/26 09:58:35;;;;;;;11.60;11.10;;;24.80;95.00;;;;;;3567545;40;21111;-56
2021/07/26 10:01:03;;;;;;;11.90;11.40;;;24.80;95.00;;;;;;3564185;40;20683;-54
2021/07/26 10:03:32;;;;;;;11.60;11.10;;;24.80;95.00;;;;;;3563412;40;20650;-57
2021/07/26 10:06:00;;;;;;;12.00;11.40;;;24.80;95.00;;;;;;3564841;40;20458;-56
2021/07/26 10:08:28;;;;;;;11.50;11.00;;;24.80;95.00;;;;;;3565168;40;20463;-54
2021/07/26 10:10:56;;;;;;;11.40;10.90;;;24.80;95.00;;;;;;3564210;40;20465;-53
2021/07/26 10:13:24;;;;;;;11.77;11.27;;;24.80;95.00;;;;;;3564984;40;20450;-54
2021/07/26 10:15:52;;;;;;;12.17;11.67;;;24.80;95.00;;;;;;3564009;40;20687;-56
2021/07/26 10:18:20;;;;;;;12.40;11.90;;;24.80;95.00;;;;;;3565124;40;20537;-57
2021/07/26 10:20:57;;;;;;;13.13;12.53;;;24.80;95.00;;;;;;3565186;40;20478;-56
2021/07/26 10:23:33;;;;;;;12.70;12.10;;;24.80;95.00;;;;;;3566476;40;20473;-55
2021/07/26 10:26:04;;;;;;;11.50;11.10;;;24.80;95.00;;;;;;3555364;40;20519;-55
2021/07/26 10:28:34;;;;;;;12.10;11.60;;;24.80;95.00;;;;;;3557325;40;20474;-56
2021/07/26 10:31:01;;;;;;;11.97;11.47;;;24.80;95.00;;;;;;3556567;40;20476;-57
2021/07/26 10:33:29;;;;;;;11.53;11.03;;;24.80;95.00;;;;;;3556255;40;20658;-54
2021/07/26 10:35:58;;;;;;;11.90;11.40;;;24.80;95.00;;;;;;3556777;40;20685;-56
2021/07/26 10:38:58;;;;;;;12.50;11.90;;;24.80;95.00;;;;;;3560780;40;20742;-58
2021/07/26 10:42:03;;;;;;;12.10;11.60;;;24.80;95.00;;;;;;3537178;40;20465;-57
2021/07/26 10:44:43;;;;;;;12.07;11.50;;;24.80;95.00;;;;;;3537695;40;20464;-56
2021/07/26 10:47:18;;;;;;;11.67;11.07;;;24.80;95.00;;;;;;3554964;40;20876;-57
2021/07/26 10:50:11;;;;;;;11.77;11.27;;;24.80;95.00;;;;;;3568038;40;20489;-56
2021/07/26 10:52:47;;;;;;;12.40;11.80;;;24.80;95.00;;;;;;3568839;40;20462;-55
2021/07/26 10:55:55;;;;;;;12.20;11.60;;;24.80;95.00;;;;;;3569730;40;20458;-61
2021/07/26 10:59:04;;;;;;;10.87;10.37;;;24.80;95.00;;;;;;3563920;40;20487;-61
2021/07/26 11:01:59;;;;;;;11.60;11.10;;;24.80;95.00;;;;;;3533388;40;21231;-61
2021/07/26 11:04:38;;;;;;;11.30;10.80;;;24.80;95.00;;;;;;3565374;40;21220;-61
2021/07/26 11:07:09;;;;;;;11.60;11.13;;;24.80;95.00;;;;;;3566952;40;20480;-61
2021/07/26 11:09:48;;;;;;;11.60;11.13;;;24.80;95.00;;;;;;3565727;40;20930;-61
2021/07/26 11:12:35;;;;;;;11.90;11.40;;;24.80;95.10;;;;;;3565276;40;20722;-61
2021/07/26 11:15:15;;;;;;;10.97;10.57;;;24.80;95.00;;;;;;3563718;40;20908;-61
2021/07/26 11:18:31;;;;;;;12.10;11.60;;;24.80;95.00;;;;;;3566024;40;20474;-61
2021/07/26 11:21:09;;;;;;;11.60;11.10;;;24.80;95.00;;;;;;3566242;40;20474;-61
2021/07/26 11:23:41;;;;;;;11.80;11.30;;;24.80;95.00;;;;;;3566293;40;21117;-61
2021/07/26 11:26:19;;;;;;;12.10;11.33;;;24.80;95.00;;;;;;3565653;40;21115;-61
2021/07/26 11:28:47;;;;;;;11.77;11.27;;;24.80;95.10;;;;;;3556843;40;20537;-61
2021/07/26 11:31:22;;;;;;;11.83;11.23;;;24.80;95.00;;;;;;3565909;40;20447;-61
2021/07/26 11:33:51;;;;;;;10.43;10.03;;;24.80;95.10;;;;;;3572776;40;20461;-61
2021/07/26 11:36:22;;;;;;;11.40;10.90;;;24.80;95.00;;;;;;3575335;40;20478;-61
2021/07/26 11:39:00;;;;;;;11.53;10.73;;;24.80;95.00;;;;;;3573307;40;20485;-61
2021/07/26 11:41:28;;;;;;;11.80;11.23;;;24.80;95.00;;;;;;3576563;40;20758;-61
2021/07/26 11:43:56;;;;;;;11.50;11.03;;;24.80;95.00;;;;;;3576172;40;20469;-61
2021/07/26 11:46:25;;;;;;;11.63;11.10;;;24.80;95.00;;;;;;3574621;40;20540;-61
2021/07/26 11:49:00;;;;;;;11.67;11.17;;;24.80;95.00;;;;;;3575172;40;20443;-59
2021/07/26 11:51:32;;;;;;;11.90;11.30;;;24.80;95.00;;;;;;3564240;40;20485;-61
2021/07/26 11:54:10;;;;;;;11.00;10.50;;;24.80;95.00;;;;;;3574002;40;20482;-61
2021/07/26 11:56:38;;;;;;;11.07;10.47;;;24.80;95.00;;;;;;3565136;40;20485;-61
2021/07/26 11:59:16;;;;;;;11.50;10.90;;;24.80;95.00;;;;;;3577138;40;20532;-61
2021/07/26 12:01:47;;;;;;;11.47;10.97;;;24.80;95.00;;;;;;3578039;40;20461;-57
2021/07/26 12:04:16;;;;;;;12.00;11.40;;;24.80;95.00;;;;;;3562263;40;20509;-57
2021/07/26 12:06:54;;;;;;;11.17;10.67;;;24.80;95.00;;;;;;3570495;40;20512;-57
2021/07/26 12:09:23;;;;;;;11.10;10.60;;;24.80;95.00;;;;;;3571685;40;20782;-57
2021/07/26 12:11:52;;;;;;;11.10;10.70;;;24.80;95.00;;;;;;3572850;40;20447;-56
2021/07/26 12:14:31;;;;;;;11.80;11.30;;;24.80;95.10;;;;;;3572140;40;20469;-56
2021/07/26 12:16:59;;;;;;;11.57;11.07;;;24.80;95.00;;;;;;3572831;40;21179;-56
2021/07/26 12:19:27;;;;;;;10.70;10.20;;;24.80;95.00;;;;;;3571861;40;20454;-57
2021/07/26 12:21:55;;;;;;;11.53;11.07;;;24.80;95.00;;;;;;3561322;40;20938;-57
2021/07/26 12:24:49;;;;;;;11.60;11.03;;;24.80;95.00;;;;;;3570679;40;20698;-56
2021/07/26 12:27:29;;;;;;;11.63;11.13;;;24.80;95.10;;;;;;3572856;40;20457;-57
2021/07/26 12:29:58;;;;;;;11.23;10.73;;;24.80;95.00;;;;;;3571646;40;20465;-57
2021/07/26 12:32:28;;;;;;;11.90;11.40;;;24.80;95.00;;;;;;3570546;40;20552;-57
2021/07/26 12:35:12;;;;;;;11.17;10.67;;;24.80;95.00;;;;;;3582043;40;20461;-56
2021/07/26 12:37:39;;;;;;;11.00;10.50;;;24.80;95.10;;;;;;3573322;40;21270;-57
2021/07/26 12:40:14;;;;;;;10.83;10.33;;;24.80;95.00;;;;;;3583641;40;20501;-57
2021/07/26 12:42:43;;;;;;;10.90;10.50;;;24.80;95.10;;;;;;3583640;40;21040;-57
2021/07/26 12:45:23;;;;;;;11.47;10.97;;;24.80;95.10;;;;;;3583375;40;20446;-57
2021/07/26 12:47:50;;;;;;;10.40;10.00;;;24.80;95.10;;;;;;3582260;40;20469;-57